Station Historical Data
Daily Summary for February 14, 2018 Units:  English    Metric   Both
« Previous Day
Next Day »
Daily Weekly Monthly Yearly Custom
  High: Low: Average:
Temperature: 42.4 °F 22.6 °F 36 °F
Dew Point: 36.1 °F 17.4 °F 30 °F
Humidity: 86% 70% 79%
Wind Speed: 24.0mph 0.0mph 5.9mph
Wind Gust: 26.0mph - -
Wind- - SW
Pressure: 30.33 in 29.92 in -
Precipitation: 0.00 in    
Historical Graphs
 
 
Tabular Data for February 14, 2018
Time Temperature Dew Point Pressure Wind Wind Speed Wind Gust Humidity Rainfall Rate (Hourly)
00:04 23.4 °F 17.8 °F 30.33 in Calm     79% 0.00 in
00:09 23.1 °F 17.8 °F 30.32 in Calm     80% 0.00 in
00:14 22.7 °F 17.5 °F 30.32 in Calm     80% 0.00 in
00:19 22.6 °F 17.4 °F 30.31 in Calm     80% 0.00 in
00:24 22.7 °F 17.5 °F 30.30 in Calm     80% 0.00 in
00:29 22.8 °F 17.6 °F 30.31 in Calm     80% 0.00 in
00:34 22.7 °F 17.5 °F 30.31 in Calm     80% 0.00 in
00:39 23.0 °F 17.7 °F 30.31 in Calm     80% 0.00 in
00:44 23.3 °F 18.0 °F 30.31 in Calm     80% 0.00 in
00:49 23.8 °F 18.5 °F 30.31 in Calm     80% 0.00 in
00:54 24.5 °F 18.9 °F 30.31 in Calm     79% 0.00 in
00:59 25.1 °F 19.5 °F 30.31 in Calm     79% 0.00 in
01:04 25.6 °F 20.0 °F 30.30 in Calm     79% 0.00 in
01:09 26.2 °F 20.3 °F 30.30 in Calm     78% 0.00 in
01:14 26.7 °F 20.8 °F 30.30 in Calm     78% 0.00 in
01:19 27.2 °F 20.9 °F 30.30 in Calm     77% 0.00 in
01:24 27.6 °F 21.0 °F 30.30 in Calm     76% 0.00 in
01:29 27.8 °F 21.5 °F 30.30 in Calm     77% 0.00 in
01:34 28.0 °F 21.7 °F 30.30 in Calm     77% 0.00 in
01:39 28.2 °F 21.9 °F 30.29 in NE 2.0 mph 2.0 mph 77% 0.00 in
01:44 28.7 °F 22.1 °F 30.29 in Calm   2.0 mph 76% 0.00 in
01:49 29.3 °F 22.4 °F 30.29 in Calm     75% 0.00 in
01:54 29.6 °F 22.6 °F 30.28 in Calm     75% 0.00 in
01:59 30.0 °F 22.7 °F 30.28 in NE 1.0 mph 4.0 mph 74% 0.00 in
02:04 30.5 °F 23.2 °F 30.27 in NE 1.0 mph 3.0 mph 74% 0.00 in
02:09 30.8 °F 23.5 °F 30.26 in East 3.0 mph 5.0 mph 74% 0.00 in
02:14 31.2 °F 23.9 °F 30.26 in East 3.0 mph 5.0 mph 74% 0.00 in
02:19 31.5 °F 24.2 °F 30.26 in East 1.0 mph 5.0 mph 74% 0.00 in
02:24 31.8 °F 24.8 °F 30.26 in East 1.0 mph 3.0 mph 75% 0.00 in
02:29 32.1 °F 25.1 °F 30.26 in ESE 1.0 mph 3.0 mph 75% 0.00 in
02:34 32.1 °F 25.1 °F 30.26 in Calm   2.0 mph 75% 0.00 in
02:39 32.2 °F 25.2 °F 30.26 in Calm     75% 0.00 in
02:44 32.3 °F 25.6 °F 30.26 in Calm     76% 0.00 in
02:49 32.3 °F 25.6 °F 30.25 in Calm     76% 0.00 in
02:54 32.4 °F 25.7 °F 30.26 in Calm     76% 0.00 in
02:59 32.8 °F 26.4 °F 30.26 in Calm     77% 0.00 in
03:04 33.4 °F 27.0 °F 30.26 in SSW 4.0 mph 5.0 mph 77% 0.00 in
03:09 34.1 °F 27.6 °F 30.25 in SW 4.0 mph 5.0 mph 77% 0.00 in
03:14 34.6 °F 28.1 °F 30.25 in SW 5.0 mph 9.0 mph 77% 0.00 in
03:19 35.1 °F 28.6 °F 30.25 in WSW 2.0 mph 8.0 mph 77% 0.00 in
03:24 35.4 °F 28.9 °F 30.25 in SW 4.0 mph 8.0 mph 77% 0.00 in
03:29 35.7 °F 28.9 °F 30.24 in SW 4.0 mph 10.0 mph 76% 0.00 in
03:34 35.9 °F 29.1 °F 30.24 in WSW 8.0 mph 12.0 mph 76% 0.00 in
03:44 36.4 °F 29.2 °F 30.25 in WSW 6.0 mph 10.0 mph 75% 0.00 in
03:49 36.5 °F 29.3 °F 30.25 in WSW 4.0 mph 10.0 mph 75% 0.00 in
03:54 36.6 °F 29.4 °F 30.24 in SW 9.0 mph 12.0 mph 75% 0.00 in
03:59 36.6 °F 29.4 °F 30.25 in WSW 7.0 mph 12.0 mph 75% 0.00 in
04:04 36.6 °F 29.4 °F 30.24 in SW 7.0 mph 12.0 mph 75% 0.00 in
04:09 36.3 °F 29.5 °F 30.24 in WSW 6.0 mph 12.0 mph 76% 0.00 in
04:15 36.2 °F 29.4 °F 30.24 in WSW 6.0 mph 15.0 mph 76% 0.00 in
04:24 35.9 °F 29.4 °F 30.24 in SW 8.0 mph 11.0 mph 77% 0.00 in
04:29 35.8 °F 29.6 °F 30.24 in WSW 5.0 mph 11.0 mph 78% 0.00 in
04:34 35.8 °F 29.6 °F 30.24 in WSW 7.0 mph 12.0 mph 78% 0.00 in
04:39 35.8 °F 29.9 °F 30.23 in SW 6.0 mph 10.0 mph 79% 0.00 in
04:44 35.7 °F 29.8 °F 30.23 in SW 5.0 mph 10.0 mph 79% 0.00 in
04:49 35.6 °F 29.7 °F 30.23 in SW 4.0 mph 10.0 mph 79% 0.00 in
04:54 35.5 °F 29.9 °F 30.23 in SW 6.0 mph 12.0 mph 80% 0.00 in
04:59 35.5 °F 29.9 °F 30.23 in SW 7.0 mph 13.0 mph 80% 0.00 in
05:04 35.5 °F 29.9 °F 30.23 in WSW 7.0 mph 9.0 mph 80% 0.00 in
05:09 35.5 °F 29.9 °F 30.22 in SW 6.0 mph 10.0 mph 80% 0.00 in
05:14 35.6 °F 30.3 °F 30.22 in South 9.0 mph 14.0 mph 81% 0.00 in
05:19 35.7 °F 30.4 °F 30.23 in WSW 14.0 mph 14.0 mph 81% 0.00 in
05:24 35.9 °F 30.6 °F 30.23 in SW 6.0 mph 14.0 mph 81% 0.00 in
05:29 36.0 °F 30.7 °F 30.22 in West 11.0 mph 13.0 mph 81% 0.01 in
05:34 36.1 °F 30.8 °F 30.22 in WSW 7.0 mph 14.0 mph 81% 0.01 in
05:39 36.1 °F 30.8 °F 30.23 in SW 4.0 mph 13.0 mph 81% 0.01 in
05:44 36.1 °F 30.8 °F 30.23 in WSW 7.0 mph 16.0 mph 81% 0.01 in
05:49 36.2 °F 30.9 °F 30.22 in WSW 7.0 mph 16.0 mph 81% 0.01 in
05:54 36.2 °F 30.9 °F 30.22 in WSW 7.0 mph 16.0 mph 81% 0.01 in
05:59 36.3 °F 31.0 °F 30.22 in WSW 8.0 mph 18.0 mph 81% 0.01 in
06:04 36.3 °F 30.7 °F 30.22 in WSW 8.0 mph 18.0 mph 80% 0.01 in
06:09 36.3 °F 31.0 °F 30.22 in WSW 7.0 mph 17.0 mph 81% 0.01 in
06:14 36.3 °F 30.7 °F 30.23 in West 10.0 mph 12.0 mph 80% 0.01 in
06:19 36.2 °F 30.6 °F 30.23 in WSW 12.0 mph 12.0 mph 80% 0.01 in
06:24 36.2 °F 30.9 °F 30.22 in WSW 7.0 mph 12.0 mph 81% 0.01 in
06:29 36.1 °F 30.8 °F 30.22 in WSW 5.0 mph 13.0 mph 81% 0.00 in
06:34 36.2 °F 30.9 °F 30.22 in West 8.0 mph 12.0 mph 81% 0.00 in
06:39 36.3 °F 31.0 °F 30.22 in West 8.0 mph 13.0 mph 81% 0.00 in
06:44 36.4 °F 31.1 °F 30.22 in WSW 2.0 mph 10.0 mph 81% 0.01 in
06:49 36.4 °F 31.1 °F 30.22 in WSW 9.0 mph 15.0 mph 81% 0.02 in
06:54 36.5 °F 31.2 °F 30.22 in WSW 7.0 mph 15.0 mph 81% 0.02 in
06:59 36.5 °F 31.2 °F 30.22 in WSW 7.0 mph 13.0 mph 81% 0.02 in
07:04 36.6 °F 31.3 °F 30.22 in SW 7.0 mph 16.0 mph 81% 0.02 in
07:09 36.6 °F 31.3 °F 30.22 in SW 8.0 mph 18.0 mph 81% 0.02 in
07:14 36.6 °F 31.6 °F 30.22 in SW 9.0 mph 19.0 mph 82% 0.02 in
07:19 36.6 °F 31.6 °F 30.22 in WSW 8.0 mph 19.0 mph 82% 0.02 in
07:24 36.6 °F 31.6 °F 30.22 in South 9.0 mph 14.0 mph 82% 0.02 in
07:29 36.5 °F 31.5 °F 30.22 in WSW 8.0 mph 14.0 mph 82% 0.03 in
07:34 36.5 °F 31.5 °F 30.22 in West 10.0 mph 15.0 mph 82% 0.04 in
07:39 36.5 °F 31.5 °F 30.22 in WSW 7.0 mph 14.0 mph 82% 0.04 in
07:44 36.6 °F 31.6 °F 30.22 in WSW 11.0 mph 14.0 mph 82% 0.03 in
07:49 36.6 °F 31.6 °F 30.22 in SW 8.0 mph 14.0 mph 82% 0.02 in
07:54 36.7 °F 31.7 °F 30.22 in SW 9.0 mph 15.0 mph 82% 0.02 in
07:59 36.8 °F 31.8 °F 30.22 in SW 9.0 mph 21.0 mph 82% 0.02 in
08:04 36.9 °F 31.9 °F 30.22 in WSW 9.0 mph 21.0 mph 82% 0.02 in
08:09 37.0 °F 32.0 °F 30.22 in WSW 10.0 mph 18.0 mph 82% 0.03 in
08:14 37.1 °F 32.1 °F 30.22 in WSW 10.0 mph 18.0 mph 82% 0.04 in
08:19 37.1 °F 31.8 °F 30.22 in WSW 10.0 mph 19.0 mph 81% 0.04 in
08:24 37.3 °F 32.3 °F 30.22 in WSW 10.0 mph 20.0 mph 82% 0.04 in
08:29 37.3 °F 32.0 °F 30.22 in WSW 10.0 mph 20.0 mph 81% 0.03 in
08:34 37.4 °F 32.1 °F 30.22 in SW 14.0 mph 20.0 mph 81% 0.02 in
08:39 37.3 °F 32.0 °F 30.22 in WSW 12.0 mph 20.0 mph 81% 0.02 in
08:44 37.2 °F 31.9 °F 30.22 in West 10.0 mph 15.0 mph 81% 0.02 in
08:49 37.1 °F 31.8 °F 30.22 in WSW 14.0 mph 18.0 mph 81% 0.02 in
08:54 37.0 °F 31.7 °F 30.22 in West 12.0 mph 18.0 mph 81% 0.02 in
08:59 36.9 °F 31.6 °F 30.22 in WSW 24.0 mph 24.0 mph 81% 0.02 in
09:04 36.9 °F 31.6 °F 30.22 in SW 10.0 mph 24.0 mph 81% 0.02 in
09:09 37.0 °F 31.7 °F 30.22 in West 12.0 mph 18.0 mph 81% 0.01 in
09:14 36.9 °F 31.6 °F 30.22 in WSW 10.0 mph 20.0 mph 81% 0.00 in
09:19 36.8 °F 31.5 °F 30.22 in WSW 10.0 mph 20.0 mph 81% 0.00 in
09:24 36.7 °F 31.4 °F 30.22 in WSW 10.0 mph 18.0 mph 81% 0.00 in
09:29 36.6 °F 31.3 °F 30.22 in WSW 10.0 mph 18.0 mph 81% 0.00 in
09:34 36.5 °F 31.2 °F 30.22 in WSW 9.0 mph 18.0 mph 81% 0.00 in
09:39 36.6 °F 31.3 °F 30.22 in SSW 7.0 mph 20.0 mph 81% 0.00 in
09:44 36.5 °F 31.2 °F 30.22 in WSW 9.0 mph 19.0 mph 81% 0.00 in
09:49 36.5 °F 31.2 °F 30.22 in West 10.0 mph 19.0 mph 81% 0.00 in
09:54 36.4 °F 31.1 °F 30.22 in WSW 14.0 mph 20.0 mph 81% 0.00 in
09:59 36.3 °F 31.0 °F 30.22 in WSW 6.0 mph 16.0 mph 81% 0.00 in
10:04 36.1 °F 30.8 °F 30.21 in SW 7.0 mph 15.0 mph 81% 0.00 in
10:09 36.2 °F 30.9 °F 30.22 in West 7.0 mph 16.0 mph 81% 0.00 in
10:14 36.4 °F 30.8 °F 30.21 in SW 12.0 mph 17.0 mph 80% 0.00 in
10:19 36.4 °F 30.8 °F 30.21 in West 7.0 mph 20.0 mph 80% 0.00 in
10:24 36.6 °F 31.0 °F 30.21 in WSW 10.0 mph 20.0 mph 80% 0.00 in
10:29 36.7 °F 31.1 °F 30.21 in WSW 9.0 mph 21.0 mph 80% 0.00 in
10:34 36.8 °F 30.9 °F 30.21 in WSW 10.0 mph 21.0 mph 79% 0.00 in
10:39 36.6 °F 30.7 °F 30.20 in WSW 9.0 mph 20.0 mph 79% 0.00 in
10:44 36.4 °F 30.5 °F 30.20 in WSW 10.0 mph 19.0 mph 79% 0.00 in
10:49 36.6 °F 30.7 °F 30.20 in WSW 10.0 mph 21.0 mph 79% 0.00 in
10:54 36.7 °F 30.8 °F 30.20 in WNW 13.0 mph 22.0 mph 79% 0.00 in
10:59 37.0 °F 30.8 °F 30.20 in WSW 11.0 mph 22.0 mph 78% 0.00 in
11:04 37.2 °F 30.7 °F 30.20 in WSW 11.0 mph 24.0 mph 77% 0.00 in
11:09 37.2 °F 30.7 °F 30.20 in WSW 12.0 mph 24.0 mph 77% 0.02 in
11:14 37.3 °F 31.1 °F 30.20 in West 16.0 mph 24.0 mph 78% 0.02 in
11:19 37.8 °F 31.2 °F 30.20 in West 14.0 mph 20.0 mph 77% 0.02 in
11:24 38.3 °F 31.4 °F 30.19 in WSW 13.0 mph 22.0 mph 76% 0.02 in
11:29 38.4 °F 31.5 °F 30.19 in SW 10.0 mph 20.0 mph 76% 0.02 in
11:34 38.6 °F 31.4 °F 30.19 in WSW 10.0 mph 20.0 mph 75% 0.02 in
11:39 38.8 °F 31.6 °F 30.19 in South 13.0 mph 16.0 mph 75% 0.02 in
11:44 38.8 °F 31.6 °F 30.19 in WSW 9.0 mph 20.0 mph 75% 0.02 in
11:49 38.7 °F 31.5 °F 30.19 in West 12.0 mph 19.0 mph 75% 0.03 in
11:54 38.9 °F 31.6 °F 30.18 in SW 11.0 mph 22.0 mph 75% 0.03 in
11:59 39.1 °F 31.8 °F 30.18 in WSW 10.0 mph 18.0 mph 75% 0.03 in
12:04 39.4 °F 32.1 °F 30.18 in SW 9.0 mph 19.0 mph 75% 0.03 in
12:09 39.4 °F 31.8 °F 30.17 in WSW 9.0 mph 19.0 mph 74% 0.02 in
12:14 39.5 °F 31.9 °F 30.17 in WSW 9.0 mph 23.0 mph 74% 0.02 in
12:19 39.6 °F 32.0 °F 30.17 in WSW 10.0 mph 23.0 mph 74% 0.02 in
12:24 39.7 °F 32.1 °F 30.17 in WSW 11.0 mph 20.0 mph 74% 0.02 in
12:29 39.9 °F 31.9 °F 30.16 in West 8.0 mph 21.0 mph 73% 0.02 in
12:34 40.0 °F 32.0 °F 30.16 in West 8.0 mph 17.0 mph 73% 0.03 in
12:39 40.0 °F 32.0 °F 30.16 in West 11.0 mph 20.0 mph 73% 0.03 in
12:44 40.0 °F 32.0 °F 30.16 in WSW 11.0 mph 26.0 mph 73% 0.03 in
12:49 39.8 °F 31.8 °F 30.16 in WSW 12.0 mph 26.0 mph 73% 0.02 in
12:54 39.7 °F 32.1 °F 30.15 in West 21.0 mph 21.0 mph 74% 0.02 in
12:59 39.8 °F 32.2 °F 30.16 in West 9.0 mph 21.0 mph 74% 0.02 in
13:04 39.8 °F 32.2 °F 30.15 in West 7.0 mph 23.0 mph 74% 0.02 in
13:09 40.0 °F 32.4 °F 30.15 in WSW 6.0 mph 16.0 mph 74% 0.01 in
13:14 40.1 °F 32.1 °F 30.15 in WSW 9.0 mph 16.0 mph 73% 0.01 in
13:19 40.4 °F 32.4 °F 30.15 in WSW 9.0 mph 17.0 mph 73% 0.01 in
13:24 40.6 °F 32.6 °F 30.15 in WSW 10.0 mph 20.0 mph 73% 0.01 in
13:29 40.6 °F 32.3 °F 30.15 in WSW 10.0 mph 20.0 mph 72% 0.01 in
13:34 40.8 °F 32.5 °F 30.14 in West 9.0 mph 20.0 mph 72% 0.00 in
13:39 40.9 °F 32.2 °F 30.14 in WSW 9.0 mph 19.0 mph 71% 0.00 in
13:44 40.9 °F 32.6 °F 30.14 in WSW 10.0 mph 20.0 mph 72% 0.00 in
13:49 41.2 °F 32.5 °F 30.13 in West 11.0 mph 25.0 mph 71% 0.00 in
13:54 41.1 °F 32.4 °F 30.13 in WSW 18.0 mph 23.0 mph 71% 0.00 in
13:59 41.1 °F 32.8 °F 30.13 in WSW 7.0 mph 21.0 mph 72% 0.00 in
14:04 41.2 °F 32.9 °F 30.13 in SSW 10.0 mph 19.0 mph 72% 0.00 in
14:09 41.4 °F 33.0 °F 30.13 in West 8.0 mph 17.0 mph 72% 0.00 in
14:14 41.5 °F 32.8 °F 30.12 in WSW 11.0 mph 20.0 mph 71% 0.00 in
14:19 41.8 °F 33.1 °F 30.12 in SW 8.0 mph 14.0 mph 71% 0.00 in
14:24 41.8 °F 33.1 °F 30.12 in WSW 8.0 mph 18.0 mph 71% 0.00 in
14:29 41.6 °F 32.9 °F 30.12 in WSW 10.0 mph 20.0 mph 71% 0.00 in
14:34 41.6 °F 32.9 °F 30.12 in WSW 8.0 mph 18.0 mph 71% 0.00 in
14:39 41.7 °F 33.0 °F 30.11 in WSW 10.0 mph 18.0 mph 71% 0.00 in
14:44 42.0 °F 33.3 °F 30.11 in WSW 8.0 mph 18.0 mph 71% 0.00 in
14:49 42.2 °F 33.1 °F 30.11 in West 9.0 mph 12.0 mph 70% 0.00 in
14:54 42.4 °F 33.3 °F 30.11 in WSW 10.0 mph 15.0 mph 70% 0.00 in
14:59 42.2 °F 33.1 °F 30.11 in WSW 9.0 mph 20.0 mph 70% 0.01 in
15:04 42.2 °F 33.1 °F 30.10 in WSW 9.0 mph 20.0 mph 70% 0.01 in
15:09 42.2 °F 33.5 °F 30.10 in WSW 8.0 mph 15.0 mph 71% 0.01 in
15:14 42.1 °F 33.0 °F 30.10 in WSW 9.0 mph 14.0 mph 70% 0.01 in
15:19 41.9 °F 32.8 °F 30.10 in West 10.0 mph 15.0 mph 70% 0.01 in
15:24 41.7 °F 33.0 °F 30.10 in SW 4.0 mph 16.0 mph 71% 0.01 in
15:34 41.4 °F 32.7 °F 30.09 in WSW 8.0 mph 15.0 mph 71% 0.01 in
15:39 41.5 °F 33.1 °F 30.09 in WSW 8.0 mph 14.0 mph 72% 0.01 in
15:44 41.4 °F 32.7 °F 30.09 in SW 8.0 mph 16.0 mph 71% 0.01 in
15:50 41.3 °F 33.0 °F 30.09 in SW 8.0 mph 16.0 mph 72% 0.01 in
15:55 40.9 °F 32.6 °F 30.09 in WSW 5.0 mph 13.0 mph 72% 0.01 in
16:00 40.7 °F 32.7 °F 30.08 in SW 7.0 mph 13.0 mph 73% 0.00 in
16:09 40.0 °F 32.4 °F 30.08 in SW 7.0 mph 13.0 mph 74% 0.00 in
16:14 39.8 °F 32.2 °F 30.08 in SW 6.0 mph 13.0 mph 74% 0.00 in
16:19 39.4 °F 32.1 °F 30.07 in SW 6.0 mph 13.0 mph 75% 0.00 in
16:24 39.0 °F 31.7 °F 30.07 in SSW 4.0 mph 9.0 mph 75% 0.00 in
16:29 38.6 °F 31.7 °F 30.07 in SW 6.0 mph 12.0 mph 76% 0.00 in
16:34 38.4 °F 31.8 °F 30.07 in SW 9.0 mph 15.0 mph 77% 0.00 in
16:39 38.1 °F 31.5 °F 30.07 in South 6.0 mph 11.0 mph 77% 0.00 in
16:44 37.9 °F 31.3 °F 30.07 in SW 6.0 mph 11.0 mph 77% 0.00 in
16:49 37.7 °F 31.5 °F 30.07 in SW 6.0 mph 12.0 mph 78% 0.00 in
16:54 37.5 °F 31.3 °F 30.07 in SW 6.0 mph 12.0 mph 78% 0.00 in
16:59 37.4 °F 31.2 °F 30.07 in SW 5.0 mph 11.0 mph 78% 0.00 in
17:04 37.3 °F 31.4 °F 30.06 in SSW 7.0 mph 9.0 mph 79% 0.00 in
17:09 37.3 °F 31.4 °F 30.06 in SW 6.0 mph 8.0 mph 79% 0.00 in
17:14 37.1 °F 31.2 °F 30.06 in SW 3.0 mph 6.0 mph 79% 0.00 in
17:19 37.1 °F 31.2 °F 30.06 in SW 4.0 mph 7.0 mph 79% 0.00 in
17:24 36.9 °F 31.0 °F 30.05 in SW 3.0 mph 7.0 mph 79% 0.00 in
17:29 36.7 °F 30.8 °F 30.05 in SW 3.0 mph 7.0 mph 79% 0.00 in
17:34 36.7 °F 31.1 °F 30.05 in SW 2.0 mph 6.0 mph 80% 0.00 in
17:39 36.4 °F 30.8 °F 30.05 in SW 3.0 mph 6.0 mph 80% 0.00 in
17:44 36.4 °F 30.8 °F 30.05 in WSW 4.0 mph 6.0 mph 80% 0.00 in
17:49 36.2 °F 30.6 °F 30.04 in SW 4.0 mph 6.0 mph 80% 0.00 in
17:54 36.1 °F 30.5 °F 30.04 in SW 3.0 mph 7.0 mph 80% 0.00 in
17:59 36.0 °F 30.7 °F 30.04 in SW 3.0 mph 7.0 mph 81% 0.00 in
18:04 35.9 °F 30.6 °F 30.04 in SW 3.0 mph 6.0 mph 81% 0.00 in
18:09 35.9 °F 30.6 °F 30.04 in SW 3.0 mph 6.0 mph 81% 0.00 in
18:14 35.8 °F 30.5 °F 30.04 in SW 1.0 mph 5.0 mph 81% 0.00 in
18:19 35.6 °F 30.3 °F 30.04 in SW 3.0 mph 5.0 mph 81% 0.00 in
18:24 35.6 °F 30.3 °F 30.03 in SW 2.0 mph 6.0 mph 81% 0.00 in
18:29 35.5 °F 30.2 °F 30.03 in SW 2.0 mph 6.0 mph 81% 0.00 in
18:34 35.5 °F 30.5 °F 30.03 in SW 2.0 mph 7.0 mph 82% 0.00 in
18:39 35.5 °F 30.2 °F 30.03 in SW 3.0 mph 7.0 mph 81% 0.00 in
18:44 35.6 °F 30.6 °F 30.03 in SW 1.0 mph 8.0 mph 82% 0.00 in
18:49 35.6 °F 30.6 °F 30.03 in SW 2.0 mph 6.0 mph 82% 0.00 in
18:54 35.6 °F 30.6 °F 30.03 in SW 5.0 mph 7.0 mph 82% 0.00 in
18:59 35.6 °F 30.6 °F 30.03 in SSW 3.0 mph 7.0 mph 82% 0.00 in
19:04 35.6 °F 30.6 °F 30.03 in SW 3.0 mph 8.0 mph 82% 0.00 in
19:09 35.6 °F 30.6 °F 30.03 in SW 3.0 mph 8.0 mph 82% 0.00 in
19:14 35.6 °F 30.6 °F 30.03 in SW 3.0 mph 8.0 mph 82% 0.00 in
19:19 35.7 °F 30.7 °F 30.02 in SW 6.0 mph 6.0 mph 82% 0.00 in
19:24 35.7 °F 30.7 °F 30.02 in SSW 4.0 mph 8.0 mph 82% 0.00 in
19:29 35.7 °F 30.7 °F 30.02 in WSW 3.0 mph 8.0 mph 82% 0.00 in
19:34 35.7 °F 30.7 °F 30.02 in SW 1.0 mph 6.0 mph 82% 0.00 in
19:39 35.6 °F 30.6 °F 30.02 in SW 3.0 mph 7.0 mph 82% 0.00 in
19:44 35.6 °F 30.6 °F 30.02 in SW 3.0 mph 7.0 mph 82% 0.00 in
19:49 35.5 °F 30.5 °F 30.02 in SW 3.0 mph 7.0 mph 82% 0.00 in
19:54 35.4 °F 30.5 °F 30.02 in SW 3.0 mph 7.0 mph 82% 0.00 in
19:59 35.4 °F 30.5 °F 30.01 in SW 2.0 mph 6.0 mph 82% 0.00 in
20:04 35.3 °F 30.4 °F 30.01 in SW 2.0 mph 4.0 mph 82% 0.00 in
20:09 35.1 °F 30.2 °F 30.01 in SW 5.0 mph 6.0 mph 82% 0.00 in
20:14 35.1 °F 30.5 °F 30.01 in SW 2.0 mph 6.0 mph 83% 0.00 in
20:19 35.2 °F 30.3 °F 30.00 in Calm   4.0 mph 82% 0.00 in
20:24 35.1 °F 30.5 °F 30.00 in Calm   3.0 mph 83% 0.00 in
20:29 35.0 °F 30.4 °F 30.00 in SSW 2.0 mph 6.0 mph 83% 0.00 in
20:34 35.0 °F 30.4 °F 30.00 in SSW 1.0 mph 4.0 mph 83% 0.00 in
20:39 35.0 °F 30.4 °F 30.00 in SSW 4.0 mph 5.0 mph 83% 0.00 in
20:44 34.9 °F 30.3 °F 30.00 in SSW 2.0 mph 5.0 mph 83% 0.00 in
20:49 35.0 °F 30.4 °F 29.99 in SW 2.0 mph 5.0 mph 83% 0.00 in
20:54 35.0 °F 30.4 °F 29.99 in SSW 3.0 mph 6.0 mph 83% 0.00 in
20:59 35.1 °F 30.5 °F 29.99 in SSW 3.0 mph 6.0 mph 83% 0.00 in
21:04 35.0 °F 30.4 °F 29.99 in SW 2.0 mph 6.0 mph 83% 0.00 in
21:09 35.1 °F 30.5 °F 30.00 in SW 2.0 mph 7.0 mph 83% 0.00 in
21:14 35.1 °F 30.5 °F 29.99 in SW 2.0 mph 7.0 mph 83% 0.00 in
21:19 35.0 °F 30.4 °F 29.99 in SW 2.0 mph 6.0 mph 83% 0.00 in
21:24 34.9 °F 30.3 °F 29.99 in SW 2.0 mph 3.0 mph 83% 0.00 in
21:29 34.9 °F 30.3 °F 29.99 in Calm   5.0 mph 83% 0.00 in
21:34 34.8 °F 30.2 °F 29.98 in SW 2.0 mph 4.0 mph 83% 0.00 in
21:39 34.7 °F 30.1 °F 29.98 in SW 1.0 mph 5.0 mph 83% 0.00 in
21:44 34.6 °F 30.0 °F 29.98 in SW 2.0 mph 5.0 mph 83% 0.00 in
21:49 34.6 °F 30.0 °F 29.97 in SW 4.0 mph 5.0 mph 83% 0.00 in
21:54 34.7 °F 30.4 °F 29.97 in SW 3.0 mph 5.0 mph 84% 0.00 in
21:59 34.8 °F 30.5 °F 29.97 in SW 3.0 mph 7.0 mph 84% 0.00 in
22:04 35.0 °F 30.7 °F 29.97 in SW 3.0 mph 8.0 mph 84% 0.00 in
22:09 35.2 °F 30.6 °F 29.96 in SW 4.0 mph 8.0 mph 83% 0.00 in
22:14 35.5 °F 30.8 °F 29.95 in SW 4.0 mph 10.0 mph 83% 0.00 in
22:19 35.6 °F 30.9 °F 29.96 in SSW 4.0 mph 10.0 mph 83% 0.00 in
22:24 35.7 °F 31.0 °F 29.95 in SW 2.0 mph 8.0 mph 83% 0.00 in
22:29 35.8 °F 31.1 °F 29.95 in SSW 4.0 mph 8.0 mph 83% 0.00 in
22:34 35.8 °F 31.1 °F 29.94 in SSW 3.0 mph 7.0 mph 83% 0.00 in
22:39 35.8 °F 30.8 °F 29.94 in SSW 2.0 mph 5.0 mph 82% 0.00 in
22:44 35.8 °F 31.1 °F 29.94 in SW 5.0 mph 6.0 mph 83% 0.00 in
22:49 35.8 °F 31.1 °F 29.94 in SSW 3.0 mph 5.0 mph 83% 0.00 in
22:54 35.8 °F 31.1 °F 29.94 in SW 4.0 mph 6.0 mph 83% 0.00 in
22:59 35.7 °F 31.0 °F 29.93 in SW 2.0 mph 7.0 mph 83% 0.00 in
23:04 35.9 °F 31.5 °F 29.93 in SW 2.0 mph 7.0 mph 84% 0.00 in
23:09 36.1 °F 31.7 °F 29.93 in SW 3.0 mph 6.0 mph 84% 0.00 in
23:14 36.3 °F 32.2 °F 29.92 in SW 3.0 mph 6.0 mph 85% 0.00 in
23:19 36.4 °F 32.3 °F 29.92 in SW 3.0 mph 5.0 mph 85% 0.00 in
23:24 36.5 °F 32.4 °F 29.92 in SW 3.0 mph 7.0 mph 85% 0.00 in
23:29 36.9 °F 33.1 °F 29.92 in SW 4.0 mph 7.0 mph 86% 0.00 in
23:34 37.5 °F 33.7 °F 29.92 in SSW 3.0 mph 9.0 mph 86% 0.00 in
23:39 38.1 °F 34.3 °F 29.92 in SW 4.0 mph 9.0 mph 86% 0.00 in
23:44 38.6 °F 34.8 °F 29.92 in SW 4.0 mph 8.0 mph 86% 0.00 in
23:49 39.3 °F 35.5 °F 29.92 in SW 3.0 mph 7.0 mph 86% 0.00 in
23:54 39.7 °F 35.9 °F 29.92 in SSW 2.0 mph 6.0 mph 86% 0.00 in
23:59 39.9 °F 36.1 °F 29.92 in SW 2.0 mph 5.0 mph 86% 0.00 in
Buffalo, New York, USA
Compliments of Weather Underground - 2.5 mb